sensor_id;sensor_type;location;lat;lon;timestamp;pressure;altitude;pressure_sealevel;temperature;humidity
30730;BME280;17476;48.458;7.928;2023-12-14T00:02:07;99009.53;;;8.99;100.00
30730;BME280;17476;48.458;7.928;2023-12-14T00:04:33;99008.50;;;9.23;100.00
30730;BME280;17476;48.458;7.928;2023-12-14T00:06:58;99016.72;;;9.35;100.00
30730;BME280;17476;48.458;7.928;2023-12-14T00:09:24;99015.81;;;9.28;100.00
30730;BME280;17476;48.458;7.928;2023-12-14T00:11:50;99024.00;;;9.40;100.00
30730;BME280;17476;48.458;7.928;2023-12-14T00:14:15;99023.28;;;9.46;100.00
30730;BME280;17476;48.458;7.928;2023-12-14T00:16:41;99028.16;;;9.49;100.00
30730;BME280;17476;48.458;7.928;2023-12-14T00:19:07;99029.28;;;9.17;100.00
30730;BME280;17476;48.458;7.928;2023-12-14T00:21:33;99037.94;;;9.32;100.00
30730;BME280;17476;48.458;7.928;2023-12-14T00:23:58;99036.69;;;9.28;100.00
30730;BME280;17476;48.458;7.928;2023-12-14T00:26:24;99044.66;;;9.26;100.00
30730;BME280;17476;48.458;7.928;2023-12-14T00:28:50;99044.16;;;9.46;100.00
30730;BME280;17476;48.458;7.928;2023-12-14T00:31:16;99046.25;;;9.50;100.00
30730;BME280;17476;48.458;7.928;2023-12-14T00:33:42;99047.69;;;9.53;100.00
30730;BME280;17476;48.458;7.928;2023-12-14T00:36:08;99054.34;;;9.55;100.00
30730;BME280;17476;48.458;7.928;2023-12-14T00:38:34;99059.38;;;9.57;100.00
30730;BME280;17476;48.458;7.928;2023-12-14T00:41:00;99061.81;;;9.58;100.00
30730;BME280;17476;48.458;7.928;2023-12-14T00:43:26;99067.03;;;9.58;100.00
30730;BME280;17476;48.458;7.928;2023-12-14T00:45:51;99060.91;;;9.51;100.00
30730;BME280;17476;48.458;7.928;2023-12-14T00:48:18;99068.56;;;9.53;100.00
30730;BME280;17476;48.458;7.928;2023-12-14T00:50:43;99073.44;;;9.56;100.00
30730;BME280;17476;48.458;7.928;2023-12-14T00:53:09;99073.25;;;9.57;100.00
30730;BME280;17476;48.458;7.928;2023-12-14T00:55:35;99074.88;;;9.58;100.00
30730;BME280;17476;48.458;7.928;2023-12-14T00:58:01;99075.25;;;9.55;100.00
30730;BME280;17476;48.458;7.928;2023-12-14T01:00:26;99073.25;;;9.57;100.00
30730;BME280;17476;48.458;7.928;2023-12-14T01:02:52;99083.69;;;9.57;100.00
30730;BME280;17476;48.458;7.928;2023-12-14T01:05:18;99088.53;;;9.61;100.00
30730;BME280;17476;48.458;7.928;2023-12-14T01:07:43;99091.16;;;9.61;100.00
30730;BME280;17476;48.458;7.928;2023-12-14T01:10:09;99100.06;;;9.66;100.00
30730;BME280;17476;48.458;7.928;2023-12-14T01:12:35;99100.59;;;9.62;100.00
30730;BME280;17476;48.458;7.928;2023-12-14T01:15:01;99098.53;;;9.42;100.00
30730;BME280;17476;48.458;7.928;2023-12-14T01:17:27;99111.88;;;9.62;100.00
30730;BME280;17476;48.458;7.928;2023-12-14T01:19:54;99114.13;;;9.65;100.00
30730;BME280;17476;48.458;7.928;2023-12-14T01:22:20;99116.25;;;9.62;100.00
30730;BME280;17476;48.458;7.928;2023-12-14T01:24:45;99116.25;;;9.62;100.00
30730;BME280;17476;48.458;7.928;2023-12-14T01:27:11;99119.25;;;9.73;100.00
30730;BME280;17476;48.458;7.928;2023-12-14T01:29:39;99119.25;;;9.73;100.00
30730;BME280;17476;48.458;7.928;2023-12-14T01:32:05;99120.44;;;9.71;100.00
30730;BME280;17476;48.458;7.928;2023-12-14T01:34:31;99134.28;;;9.34;100.00
30730;BME280;17476;48.458;7.928;2023-12-14T01:36:57;99130.06;;;9.55;100.00
30730;BME280;17476;48.458;7.928;2023-12-14T01:39:22;99137.31;;;9.60;100.00
30730;BME280;17476;48.458;7.928;2023-12-14T01:41:48;99135.59;;;9.52;100.00
30730;BME280;17476;48.458;7.928;2023-12-14T01:44:14;99144.22;;;9.38;100.00
30730;BME280;17476;48.458;7.928;2023-12-14T01:46:40;99146.53;;;9.10;100.00
30730;BME280;17476;48.458;7.928;2023-12-14T01:49:06;99146.41;;;9.26;100.00
30730;BME280;17476;48.458;7.928;2023-12-14T01:51:32;99156.09;;;9.41;100.00
30730;BME280;17476;48.458;7.928;2023-12-14T01:53:59;99160.97;;;9.44;100.00
30730;BME280;17476;48.458;7.928;2023-12-14T01:56:25;99168.31;;;9.40;100.00
30730;BME280;17476;48.458;7.928;2023-12-14T01:58:50;99171.56;;;9.19;100.00
30730;BME280;17476;48.458;7.928;2023-12-14T02:01:42;99175.97;;;9.19;100.00
30730;BME280;17476;48.458;7.928;2023-12-14T02:04:08;99176.78;;;9.19;100.00
30730;BME280;17476;48.458;7.928;2023-12-14T02:06:35;99180.91;;;9.37;100.00
30730;BME280;17476;48.458;7.928;2023-12-14T02:09:02;99179.94;;;9.15;100.00
30730;BME280;17476;48.458;7.928;2023-12-14T02:11:27;99182.41;;;8.77;100.00
30730;BME280;17476;48.458;7.928;2023-12-14T02:13:53;99195.41;;;8.85;100.00
30730;BME280;17476;48.458;7.928;2023-12-14T02:16:19;99192.84;;;9.08;100.00
30730;BME280;17476;48.458;7.928;2023-12-14T02:18:45;99192.81;;;9.16;100.00
30730;BME280;17476;48.458;7.928;2023-12-14T02:21:11;99195.94;;;8.81;100.00
30730;BME280;17476;48.458;7.928;2023-12-14T02:23:46;99199.41;;;8.65;100.00
30730;BME280;17476;48.458;7.928;2023-12-14T02:26:13;99197.78;;;8.64;100.00
30730;BME280;17476;48.458;7.928;2023-12-14T02:28:39;99199.50;;;8.80;100.00
30730;BME280;17476;48.458;7.928;2023-12-14T02:31:05;99207.09;;;8.58;100.00
30730;BME280;17476;48.458;7.928;2023-12-14T02:33:31;99202.38;;;8.93;100.00
30730;BME280;17476;48.458;7.928;2023-12-14T02:35:57;99206.41;;;9.26;100.00
30730;BME280;17476;48.458;7.928;2023-12-14T02:38:23;99210.13;;;9.09;100.00
30730;BME280;17476;48.458;7.928;2023-12-14T02:40:48;99209.25;;;8.86;100.00
30730;BME280;17476;48.458;7.928;2023-12-14T02:43:18;99214.69;;;8.76;100.00
30730;BME280;17476;48.458;7.928;2023-12-14T02:45:45;99221.81;;;9.13;100.00
30730;BME280;17476;48.458;7.928;2023-12-14T02:48:11;99219.81;;;9.23;100.00
30730;BME280;17476;48.458;7.928;2023-12-14T02:50:38;99218.69;;;8.87;100.00
30730;BME280;17476;48.458;7.928;2023-12-14T02:53:03;99225.97;;;8.68;100.00
30730;BME280;17476;48.458;7.928;2023-12-14T02:55:29;99227.84;;;8.83;100.00
30730;BME280;17476;48.458;7.928;2023-12-14T02:57:55;99232.22;;;8.90;100.00
30730;BME280;17476;48.458;7.928;2023-12-14T03:00:21;99229.56;;;8.98;100.00
30730;BME280;17476;48.458;7.928;2023-12-14T03:02:47;99234.31;;;8.95;100.00
30730;BME280;17476;48.458;7.928;2023-12-14T03:05:12;99243.69;;;9.12;100.00
30730;BME280;17476;48.458;7.928;2023-12-14T03:07:38;99238.72;;;8.94;100.00
30730;BME280;17476;48.458;7.928;2023-12-14T03:10:05;99249.31;;;8.93;100.00
30730;BME280;17476;48.458;7.928;2023-12-14T03:12:30;99253.06;;;8.90;100.00
30730;BME280;17476;48.458;7.928;2023-12-14T03:14:56;99253.88;;;8.91;100.00
30730;BME280;17476;48.458;7.928;2023-12-14T03:17:22;99262.44;;;8.77;100.00
30730;BME280;17476;48.458;7.928;2023-12-14T03:19:48;99250.97;;;8.86;100.00
30730;BME280;17476;48.458;7.928;2023-12-14T03:22:13;99250.66;;;8.89;100.00
30730;BME280;17476;48.458;7.928;2023-12-14T03:24:39;99265.72;;;8.62;100.00
30730;BME280;17476;48.458;7.928;2023-12-14T03:27:05;99262.66;;;8.98;100.00
30730;BME280;17476;48.458;7.928;2023-12-14T03:29:31;99271.44;;;9.05;100.00
30730;BME280;17476;48.458;7.928;2023-12-14T03:31:57;99275.63;;;8.67;100.00
30730;BME280;17476;48.458;7.928;2023-12-14T03:34:24;99279.63;;;8.38;100.00
30730;BME280;17476;48.458;7.928;2023-12-14T03:36:50;99279.06;;;8.59;100.00
30730;BME280;17476;48.458;7.928;2023-12-14T03:39:16;99283.59;;;8.73;100.00
30730;BME280;17476;48.458;7.928;2023-12-14T03:41:43;99289.22;;;8.93;100.00
30730;BME280;17476;48.458;7.928;2023-12-14T03:44:09;99289.84;;;9.03;100.00
30730;BME280;17476;48.458;7.928;2023-12-14T03:46:35;99303.56;;;8.97;100.00
30730;BME280;17476;48.458;7.928;2023-12-14T03:49:02;99301.81;;;8.90;100.00
30730;BME280;17476;48.458;7.928;2023-12-14T03:51:28;99310.47;;;8.82;100.00
30730;BME280;17476;48.458;7.928;2023-12-14T03:53:54;99317.88;;;8.30;100.00
30730;BME280;17476;48.458;7.928;2023-12-14T03:56:19;99324.41;;;8.42;100.00
30730;BME280;17476;48.458;7.928;2023-12-14T03:58:45;99325.50;;;8.64;100.00
30730;BME280;17476;48.458;7.928;2023-12-14T04:01:18;99332.69;;;8.62;100.00
30730;BME280;17476;48.458;7.928;2023-12-14T04:03:45;99330.81;;;8.87;100.00
30730;BME280;17476;48.458;7.928;2023-12-14T04:06:14;99337.19;;;8.84;100.00
30730;BME280;17476;48.458;7.928;2023-12-14T04:08:41;99344.19;;;8.84;100.00
30730;BME280;17476;48.458;7.928;2023-12-14T04:11:08;99348.44;;;8.85;100.00
30730;BME280;17476;48.458;7.928;2023-12-14T04:13:34;99349.75;;;8.81;100.00
30730;BME280;17476;48.458;7.928;2023-12-14T04:16:00;99354.69;;;8.27;100.00
30730;BME280;17476;48.458;7.928;2023-12-14T04:18:26;99357.44;;;8.50;100.00
30730;BME280;17476;48.458;7.928;2023-12-14T04:20:52;99362.00;;;8.39;100.00
30730;BME280;17476;48.458;7.928;2023-12-14T04:23:17;99370.94;;;8.53;100.00
30730;BME280;17476;48.458;7.928;2023-12-14T04:25:44;99368.66;;;8.83;100.00
30730;BME280;17476;48.458;7.928;2023-12-14T04:28:10;99370.72;;;9.03;100.00
30730;BME280;17476;48.458;7.928;2023-12-14T04:30:36;99371.50;;;9.12;100.00
30730;BME280;17476;48.458;7.928;2023-12-14T04:33:02;99372.47;;;9.11;100.00
30730;BME280;17476;48.458;7.928;2023-12-14T04:35:27;99369.38;;;9.08;100.00
30730;BME280;17476;48.458;7.928;2023-12-14T04:37:53;99383.41;;;9.07;100.00
30730;BME280;17476;48.458;7.928;2023-12-14T04:40:19;99391.59;;;8.87;100.00
30730;BME280;17476;48.458;7.928;2023-12-14T04:42:45;99391.75;;;8.94;100.00
30730;BME280;17476;48.458;7.928;2023-12-14T04:45:10;99391.56;;;9.03;100.00
30730;BME280;17476;48.458;7.928;2023-12-14T04:47:37;99397.91;;;9.17;100.00
30730;BME280;17476;48.458;7.928;2023-12-14T04:50:03;99397.41;;;9.14;100.00
30730;BME280;17476;48.458;7.928;2023-12-14T04:52:29;99398.06;;;9.16;100.00
30730;BME280;17476;48.458;7.928;2023-12-14T04:54:55;99403.75;;;9.19;100.00
30730;BME280;17476;48.458;7.928;2023-12-14T04:57:20;99413.16;;;9.37;100.00
30730;BME280;17476;48.458;7.928;2023-12-14T04:59:46;99416.09;;;9.34;100.00
30730;BME280;17476;48.458;7.928;2023-12-14T05:02:12;99418.91;;;9.24;100.00
30730;BME280;17476;48.458;7.928;2023-12-14T05:04:38;99422.34;;;9.16;100.00
30730;BME280;17476;48.458;7.928;2023-12-14T05:07:04;99432.03;;;8.83;100.00
30730;BME280;17476;48.458;7.928;2023-12-14T05:09:30;99436.56;;;9.06;100.00
30730;BME280;17476;48.458;7.928;2023-12-14T05:11:55;99447.69;;;8.75;100.00
30730;BME280;17476;48.458;7.928;2023-12-14T05:14:21;99456.78;;;8.38;100.00
30730;BME280;17476;48.458;7.928;2023-12-14T05:16:47;99449.31;;;8.68;100.00
30730;BME280;17476;48.458;7.928;2023-12-14T05:19:15;99455.47;;;8.67;100.00
30730;BME280;17476;48.458;7.928;2023-12-14T05:21:41;99465.44;;;8.55;100.00
30730;BME280;17476;48.458;7.928;2023-12-14T05:24:07;99466.91;;;8.58;100.00
30730;BME280;17476;48.458;7.928;2023-12-14T05:26:32;99469.84;;;8.63;100.00
30730;BME280;17476;48.458;7.928;2023-12-14T05:28:58;99474.91;;;8.89;100.00
30730;BME280;17476;48.458;7.928;2023-12-14T05:31:24;99479.78;;;9.08;100.00
30730;BME280;17476;48.458;7.928;2023-12-14T05:33:50;99479.94;;;8.98;100.00
30730;BME280;17476;48.458;7.928;2023-12-14T05:36:16;99480.75;;;8.91;100.00
30730;BME280;17476;48.458;7.928;2023-12-14T05:38:43;99492.75;;;8.35;100.00
30730;BME280;17476;48.458;7.928;2023-12-14T05:41:09;99503.84;;;8.37;100.00
30730;BME280;17476;48.458;7.928;2023-12-14T05:43:35;99503.38;;;8.58;100.00
30730;BME280;17476;48.458;7.928;2023-12-14T05:46:02;99512.22;;;8.81;100.00
30730;BME280;17476;48.458;7.928;2023-12-14T05:48:29;99512.03;;;8.91;100.00
30730;BME280;17476;48.458;7.928;2023-12-14T05:50:56;99519.69;;;8.92;100.00
30730;BME280;17476;48.458;7.928;2023-12-14T05:53:22;99518.72;;;8.93;100.00
30730;BME280;17476;48.458;7.928;2023-12-14T05:55:48;99530.13;;;8.76;100.00
30730;BME280;17476;48.458;7.928;2023-12-14T05:58:14;99535.50;;;8.74;100.00
30730;BME280;17476;48.458;7.928;2023-12-14T06:00:40;99541.94;;;8.38;100.00
30730;BME280;17476;48.458;7.928;2023-12-14T06:03:06;99543.66;;;8.13;100.00
30730;BME280;17476;48.458;7.928;2023-12-14T06:05:32;99546.09;;;8.14;100.00
30730;BME280;17476;48.458;7.928;2023-12-14T06:07:57;99539.91;;;8.15;100.00
30730;BME280;17476;48.458;7.928;2023-12-14T06:10:23;99548.38;;;8.26;100.00
30730;BME280;17476;48.458;7.928;2023-12-14T06:12:49;99548.66;;;8.48;100.00
30730;BME280;17476;48.458;7.928;2023-12-14T06:15:15;99551.09;;;8.50;100.00
30730;BME280;17476;48.458;7.928;2023-12-14T06:17:41;99561.88;;;8.55;100.00
30730;BME280;17476;48.458;7.928;2023-12-14T06:20:09;99574.94;;;8.21;100.00
30730;BME280;17476;48.458;7.928;2023-12-14T06:22:38;99573.97;;;8.30;100.00
30730;BME280;17476;48.458;7.928;2023-12-14T06:25:04;99578.50;;;8.62;100.00
30730;BME280;17476;48.458;7.928;2023-12-14T06:27:30;99581.56;;;8.58;100.00
30730;BME280;17476;48.458;7.928;2023-12-14T06:29:56;99591.38;;;8.72;100.00
30730;BME280;17476;48.458;7.928;2023-12-14T06:32:22;99598.56;;;8.78;100.00
30730;BME280;17476;48.458;7.928;2023-12-14T06:34:48;99599.38;;;8.79;100.00
30730;BME280;17476;48.458;7.928;2023-12-14T06:37:14;99606.22;;;8.80;100.00
30730;BME280;17476;48.458;7.928;2023-12-14T06:39:43;99607.69;;;8.32;100.00
30730;BME280;17476;48.458;7.928;2023-12-14T06:42:09;99616.72;;;8.45;100.00
30730;BME280;17476;48.458;7.928;2023-12-14T06:44:35;99619.47;;;8.36;100.00
30730;BME280;17476;48.458;7.928;2023-12-14T06:47:01;99622.91;;;8.44;100.00
30730;BME280;17476;48.458;7.928;2023-12-14T06:49:26;99626.69;;;8.24;100.00
30730;BME280;17476;48.458;7.928;2023-12-14T06:51:52;99630.44;;;8.21;100.00
30730;BME280;17476;48.458;7.928;2023-12-14T06:54:18;99628.66;;;8.22;100.00
30730;BME280;17476;48.458;7.928;2023-12-14T06:56:44;99639.84;;;8.14;100.00
30730;BME280;17476;48.458;7.928;2023-12-14T06:59:10;99640.13;;;8.37;100.00
30730;BME280;17476;48.458;7.928;2023-12-14T07:01:36;99652.72;;;8.42;100.00
30730;BME280;17476;48.458;7.928;2023-12-14T07:04:01;99645.28;;;8.55;100.00
30730;BME280;17476;48.458;7.928;2023-12-14T07:06:29;99656.97;;;8.25;100.00
30730;BME280;17476;48.458;7.928;2023-12-14T07:08:55;99665.34;;;8.03;100.00
30730;BME280;17476;48.458;7.928;2023-12-14T07:11:20;99665.63;;;8.26;100.00
30730;BME280;17476;48.458;7.928;2023-12-14T07:13:46;99672.56;;;8.43;100.00
30730;BME280;17476;48.458;7.928;2023-12-14T07:16:12;99679.75;;;8.41;100.00
30730;BME280;17476;48.458;7.928;2023-12-14T07:18:40;99679.56;;;8.16;100.00
30730;BME280;17476;48.458;7.928;2023-12-14T07:21:07;99684.81;;;8.25;100.00
30730;BME280;17476;48.458;7.928;2023-12-14T07:23:33;99691.31;;;8.46;100.00
30730;BME280;17476;48.458;7.928;2023-12-14T07:25:59;99687.59;;;8.23;100.00
30730;BME280;17476;48.458;7.928;2023-12-14T07:28:25;99700.81;;;8.30;100.00
30730;BME280;17476;48.458;7.928;2023-12-14T07:30:51;99694.56;;;8.40;100.00
30730;BME280;17476;48.458;7.928;2023-12-14T07:33:17;99706.75;;;8.40;100.00
30730;BME280;17476;48.458;7.928;2023-12-14T07:35:43;99706.69;;;8.58;100.00
30730;BME280;17476;48.458;7.928;2023-12-14T07:38:10;99715.34;;;8.66;100.00
30730;BME280;17476;48.458;7.928;2023-12-14T07:40:36;99717.94;;;8.66;100.00
30730;BME280;17476;48.458;7.928;2023-12-14T07:43:04;99728.34;;;8.58;100.00
30730;BME280;17476;48.458;7.928;2023-12-14T07:45:30;99727.50;;;8.92;100.00
30730;BME280;17476;48.458;7.928;2023-12-14T07:47:56;99727.38;;;9.01;100.00
30730;BME280;17476;48.458;7.928;2023-12-14T07:50:22;99731.81;;;9.09;100.00
30730;BME280;17476;48.458;7.928;2023-12-14T07:52:47;99732.47;;;9.19;100.00
30730;BME280;17476;48.458;7.928;2023-12-14T07:55:13;99738.00;;;9.08;100.00
30730;BME280;17476;48.458;7.928;2023-12-14T07:57:39;99742.78;;;8.79;100.00
30730;BME280;17476;48.458;7.928;2023-12-14T08:00:07;99753.41;;;8.51;100.00
30730;BME280;17476;48.458;7.928;2023-12-14T08:02:36;99756.13;;;8.75;100.00
30730;BME280;17476;48.458;7.928;2023-12-14T08:05:03;99760.84;;;8.46;100.00
30730;BME280;17476;48.458;7.928;2023-12-14T08:07:29;99768.03;;;8.26;100.00
30730;BME280;17476;48.458;7.928;2023-12-14T08:09:55;99765.78;;;8.49;100.00
30730;BME280;17476;48.458;7.928;2023-12-14T08:12:22;99772.28;;;8.53;100.00
30730;BME280;17476;48.458;7.928;2023-12-14T08:14:48;99785.66;;;8.32;100.00
30730;BME280;17476;48.458;7.928;2023-12-14T08:17:14;99780.69;;;8.65;100.00
30730;BME280;17476;48.458;7.928;2023-12-14T08:19:40;99791.34;;;8.80;100.00
30730;BME280;17476;48.458;7.928;2023-12-14T08:22:06;99804.31;;;8.97;100.00
30730;BME280;17476;48.458;7.928;2023-12-14T08:24:33;99810.03;;;9.01;100.00
30730;BME280;17476;48.458;7.928;2023-12-14T08:26:59;99814.16;;;8.78;100.00
30730;BME280;17476;48.458;7.928;2023-12-14T08:29:24;99813.06;;;8.88;100.00
30730;BME280;17476;48.458;7.928;2023-12-14T08:31:50;99817.81;;;8.93;100.00
30730;BME280;17476;48.458;7.928;2023-12-14T08:34:16;99827.84;;;8.80;100.00
30730;BME280;17476;48.458;7.928;2023-12-14T08:36:42;99824.63;;;8.60;100.00
30730;BME280;17476;48.458;7.928;2023-12-14T08:39:07;99834.38;;;8.84;100.00
30730;BME280;17476;48.458;7.928;2023-12-14T08:41:33;99832.81;;;8.65;100.00
30730;BME280;17476;48.458;7.928;2023-12-14T08:43:59;99840.78;;;8.89;100.00
30730;BME280;17476;48.458;7.928;2023-12-14T08:46:24;99848.81;;;8.96;100.00
30730;BME280;17476;48.458;7.928;2023-12-14T08:48:50;99854.63;;;9.24;100.00
30730;BME280;17476;48.458;7.928;2023-12-14T08:51:17;99865.63;;;9.44;100.00
30730;BME280;17476;48.458;7.928;2023-12-14T08:53:44;99861.84;;;8.96;100.00
30730;BME280;17476;48.458;7.928;2023-12-14T08:56:10;99874.00;;;8.87;100.00
30730;BME280;17476;48.458;7.928;2023-12-14T08:58:36;99877.75;;;8.85;100.00
30730;BME280;17476;48.458;7.928;2023-12-14T09:01:01;99884.53;;;8.78;100.00
30730;BME280;17476;48.458;7.928;2023-12-14T09:03:27;99882.03;;;8.68;100.00
30730;BME280;17476;48.458;7.928;2023-12-14T09:05:53;99890.38;;;8.97;100.00
30730;BME280;17476;48.458;7.928;2023-12-14T09:08:18;99888.81;;;9.13;100.00
30730;BME280;17476;48.458;7.928;2023-12-14T09:10:44;99900.66;;;9.33;100.00
30730;BME280;17476;48.458;7.928;2023-12-14T09:13:10;99906.00;;;9.23;100.00
30730;BME280;17476;48.458;7.928;2023-12-14T09:15:36;99900.19;;;9.38;100.00
30730;BME280;17476;48.458;7.928;2023-12-14T09:18:02;99908.28;;;9.61;100.00
30730;BME280;17476;48.458;7.928;2023-12-14T09:20:28;99910.56;;;9.64;100.00
30730;BME280;17476;48.458;7.928;2023-12-14T09:22:54;99917.94;;;9.34;100.00
30730;BME280;17476;48.458;7.928;2023-12-14T09:25:20;99923.91;;;9.18;100.00
30730;BME280;17476;48.458;7.928;2023-12-14T09:27:46;99926.72;;;8.99;100.00
30730;BME280;17476;48.458;7.928;2023-12-14T09:30:12;99932.06;;;8.89;100.00
30730;BME280;17476;48.458;7.928;2023-12-14T09:32:38;99945.72;;;9.09;100.00
30730;BME280;17476;48.458;7.928;2023-12-14T09:35:06;99950.00;;;9.18;100.00
30730;BME280;17476;48.458;7.928;2023-12-14T09:37:32;99949.91;;;9.28;100.00
30730;BME280;17476;48.458;7.928;2023-12-14T09:39:58;99954.25;;;9.53;100.00
30730;BME280;17476;48.458;7.928;2023-12-14T09:42:23;99956.56;;;9.22;100.00
30730;BME280;17476;48.458;7.928;2023-12-14T09:44:51;99967.91;;;9.13;100.00
30730;BME280;17476;48.458;7.928;2023-12-14T09:47:17;99971.22;;;9.49;100.00
30730;BME280;17476;48.458;7.928;2023-12-14T09:49:45;99973.41;;;9.28;100.00
30730;BME280;17476;48.458;7.928;2023-12-14T09:52:12;99982.38;;;9.34;100.00
30730;BME280;17476;48.458;7.928;2023-12-14T09:54:39;99977.47;;;9.30;100.00
30730;BME280;17476;48.458;7.928;2023-12-14T09:57:05;99987.19;;;9.20;100.00
30730;BME280;17476;48.458;7.928;2023-12-14T09:59:31;99986.06;;;9.23;100.00
30730;BME280;17476;48.458;7.928;2023-12-14T10:02:10;99992.72;;;9.17;100.00
30730;BME280;17476;48.458;7.928;2023-12-14T10:04:37;99994.97;;;9.12;100.00
30730;BME280;17476;48.458;7.928;2023-12-14T10:07:03;99998.84;;;9.34;100.00
30730;BME280;17476;48.458;7.928;2023-12-14T10:09:33;100006.66;;;9.60;100.00
30730;BME280;17476;48.458;7.928;2023-12-14T10:12:08;100013.63;;;9.77;100.00
30730;BME280;17476;48.458;7.928;2023-12-14T10:14:35;100015.09;;;9.80;100.00
30730;BME280;17476;48.458;7.928;2023-12-14T10:17:19;100017.28;;;9.33;100.00
30730;BME280;17476;48.458;7.928;2023-12-14T10:19:46;100022.53;;;9.41;100.00
30730;BME280;17476;48.458;7.928;2023-12-14T10:22:16;100020.28;;;9.20;100.00
30730;BME280;17476;48.458;7.928;2023-12-14T10:24:47;100023.06;;;9.44;100.00
30730;BME280;17476;48.458;7.928;2023-12-14T10:27:15;100030.00;;;9.62;100.00
30730;BME280;17476;48.458;7.928;2023-12-14T10:29:41;100031.88;;;9.69;100.00
30730;BME280;17476;48.458;7.928;2023-12-14T10:32:08;100031.47;;;9.56;100.00
30730;BME280;17476;48.458;7.928;2023-12-14T10:34:35;100034.13;;;9.38;100.00
30730;BME280;17476;48.458;7.928;2023-12-14T10:37:04;100028.78;;;9.48;100.00
30730;BME280;17476;48.458;7.928;2023-12-14T10:39:32;100031.50;;;9.64;100.00
30730;BME280;17476;48.458;7.928;2023-12-14T10:41:59;100030.78;;;9.54;100.00
30730;BME280;17476;48.458;7.928;2023-12-14T10:44:27;100037.72;;;9.19;100.00
30730;BME280;17476;48.458;7.928;2023-12-14T10:46:58;100036.53;;;9.32;100.00
30730;BME280;17476;48.458;7.928;2023-12-14T10:49:25;100038.19;;;9.67;100.00
30730;BME280;17476;48.458;7.928;2023-12-14T10:51:55;100042.59;;;9.66;100.00
30730;BME280;17476;48.458;7.928;2023-12-14T10:54:24;100048.13;;;9.89;100.00
30730;BME280;17476;48.458;7.928;2023-12-14T10:56:57;100054.25;;;10.14;100.00
30730;BME280;17476;48.458;7.928;2023-12-14T10:59:26;100055.41;;;10.20;100.00
30730;BME280;17476;48.458;7.928;2023-12-14T11:01:54;100058.84;;;10.71;100.00
30730;BME280;17476;48.458;7.928;2023-12-14T11:04:21;100069.03;;;11.06;100.00
30730;BME280;17476;48.458;7.928;2023-12-14T11:06:47;100072.63;;;11.05;100.00
30730;BME280;17476;48.458;7.928;2023-12-14T11:09:17;100077.75;;;10.56;100.00
30730;BME280;17476;48.458;7.928;2023-12-14T11:14:19;100086.13;;;9.57;100.00
30730;BME280;17476;48.458;7.928;2023-12-14T11:16:48;100089.50;;;9.76;100.00
30730;BME280;17476;48.458;7.928;2023-12-14T11:19:24;100092.25;;;10.00;100.00
30730;BME280;17476;48.458;7.928;2023-12-14T11:24:21;100096.88;;;9.80;100.00
30730;BME280;17476;48.458;7.928;2023-12-14T11:26:49;100099.59;;;9.71;100.00
30730;BME280;17476;48.458;7.928;2023-12-14T11:29:17;100095.16;;;9.89;100.00
30730;BME280;17476;48.458;7.928;2023-12-14T11:31:43;100094.06;;;10.08;100.00
30730;BME280;17476;48.458;7.928;2023-12-14T11:34:09;100095.00;;;9.99;100.00
30730;BME280;17476;48.458;7.928;2023-12-14T11:36:35;100103.06;;;9.79;100.00
30730;BME280;17476;48.458;7.928;2023-12-14T11:39:05;100109.22;;;9.96;100.00
30730;BME280;17476;48.458;7.928;2023-12-14T11:41:31;100112.97;;;10.02;100.00
30730;BME280;17476;48.458;7.928;2023-12-14T11:43:59;100110.75;;;10.15;100.00
30730;BME280;17476;48.458;7.928;2023-12-14T11:46:25;100121.47;;;9.96;100.00
30730;BME280;17476;48.458;7.928;2023-12-14T11:48:50;100116.47;;;10.10;100.00
30730;BME280;17476;48.458;7.928;2023-12-14T11:51:17;100119.19;;;10.27;100.00
30730;BME280;17476;48.458;7.928;2023-12-14T11:53:46;100116.69;;;10.59;100.00
30730;BME280;17476;48.458;7.928;2023-12-14T11:56:18;100123.19;;;10.21;100.00
30730;BME280;17476;48.458;7.928;2023-12-14T11:58:44;100119.13;;;10.19;100.00
30730;BME280;17476;48.458;7.928;2023-12-14T12:01:17;100116.28;;;10.38;100.00
30730;BME280;17476;48.458;7.928;2023-12-14T12:03:45;100123.56;;;10.60;100.00
30730;BME280;17476;48.458;7.928;2023-12-14T12:06:25;100121.66;;;10.79;100.00
30730;BME280;17476;48.458;7.928;2023-12-14T12:08:53;100118.94;;;10.54;100.00
30730;BME280;17476;48.458;7.928;2023-12-14T12:11:22;100121.28;;;10.57;100.00
30730;BME280;17476;48.458;7.928;2023-12-14T12:13:53;100121.63;;;10.71;100.00
30730;BME280;17476;48.458;7.928;2023-12-14T12:16:19;100123.34;;;10.11;100.00
30730;BME280;17476;48.458;7.928;2023-12-14T12:18:45;100133.63;;;10.39;100.00
30730;BME280;17476;48.458;7.928;2023-12-14T12:21:12;100126.59;;;10.48;100.00
30730;BME280;17476;48.458;7.928;2023-12-14T12:23:38;100130.56;;;10.52;100.00
30730;BME280;17476;48.458;7.928;2023-12-14T12:26:04;100124.50;;;10.43;100.00
30730;BME280;17476;48.458;7.928;2023-12-14T12:28:31;100129.19;;;10.31;100.00
30730;BME280;17476;48.458;7.928;2023-12-14T12:30:57;100128.41;;;10.13;100.00
30730;BME280;17476;48.458;7.928;2023-12-14T12:33:23;100133.22;;;10.00;100.00
30730;BME280;17476;48.458;7.928;2023-12-14T12:35:49;100133.03;;;9.67;100.00
30730;BME280;17476;48.458;7.928;2023-12-14T12:38:15;100132.72;;;9.70;100.00
30730;BME280;17476;48.458;7.928;2023-12-14T12:40:42;100129.72;;;9.83;100.00
30730;BME280;17476;48.458;7.928;2023-12-14T12:43:07;100145.47;;;9.99;100.00
30730;BME280;17476;48.458;7.928;2023-12-14T12:45:33;100135.41;;;10.12;100.00
30730;BME280;17476;48.458;7.928;2023-12-14T12:48:01;100144.19;;;10.29;100.00
30730;BME280;17476;48.458;7.928;2023-12-14T12:50:29;100143.56;;;10.35;100.00
30730;BME280;17476;48.458;7.928;2023-12-14T12:52:55;100147.53;;;10.48;100.00
30730;BME280;17476;48.458;7.928;2023-12-14T12:55:21;100151.34;;;10.61;100.00
30730;BME280;17476;48.458;7.928;2023-12-14T12:57:48;100159.44;;;10.42;100.00
30730;BME280;17476;48.458;7.928;2023-12-14T13:00:14;100158.97;;;10.47;100.00